Time;durP1;ratioP1;P1;durP2;ratioP2;P2;SDS_P1;SDS_P2;PMS_P1;PMS_P2;Temp;Humidity;BMP_temperature;BMP_pressure;BME280_temperature;BME280_humidity;BME280_pressure;Samples;Min_cycle;Max_cycle;Signal;HPM_P1;HPM_P2
2023/01/27 00:02:07;;;;;;;20.15;10.63;;;1.70;99.90;;;;;;4951372;29;20204;-47
2023/01/27 00:04:33;;;;;;;20.98;11.80;;;2.20;99.90;;;;;;4951194;29;20219;-47
2023/01/27 00:07:00;;;;;;;24.00;12.00;;;2.30;99.90;;;;;;4951126;28;20230;-47
2023/01/27 00:09:28;;;;;;;22.33;11.52;;;2.30;99.90;;;;;;4951362;29;20567;-48
2023/01/27 00:14:39;;;;;;;17.75;10.45;;;2.20;99.90;;;;;;4951152;29;20190;-48
2023/01/27 00:17:06;;;;;;;20.17;10.88;;;2.30;99.90;;;;;;4951566;28;20234;-48
2023/01/27 00:19:32;;;;;;;20.63;10.98;;;2.30;99.90;;;;;;4950615;29;20661;-47
2023/01/27 00:24:44;;;;;;;21.20;11.10;;;2.60;99.90;;;;;;4951132;29;20269;-48
2023/01/27 00:27:13;;;;;;;20.33;10.80;;;2.40;99.90;;;;;;5017182;28;20223;-48
2023/01/27 00:29:40;;;;;;;22.73;12.55;;;2.20;99.90;;;;;;4951008;28;20199;-48
2023/01/27 00:34:51;;;;;;;21.52;11.23;;;1.80;99.90;;;;;;5017109;28;20207;-48
2023/01/27 00:37:19;;;;;;;23.80;11.60;;;2.10;99.90;;;;;;4950814;28;20223;-48
2023/01/27 00:39:47;;;;;;;22.55;12.65;;;2.40;99.90;;;;;;5017013;28;20625;-48
2023/01/27 00:42:14;;;;;;;25.30;13.65;;;2.20;99.90;;;;;;5017378;28;20214;-48
2023/01/27 00:45:47;;;;;;;26.90;13.18;;;2.40;99.90;;;;;;4951139;28;20230;-48
2023/01/27 00:47:28;;;;;;;27.83;13.10;;;2.20;99.90;;;;;;5017243;28;20215;-48
2023/01/27 00:49:55;;;;;;;26.25;12.30;;;2.40;99.90;;;;;;5017156;28;20218;-47
2023/01/27 00:52:21;;;;;;;28.40;12.88;;;2.10;99.90;;;;;;4951409;28;20261;-48
2023/01/27 00:54:50;;;;;;;26.25;12.20;;;2.20;99.90;;;;;;5016911;28;20219;-47
2023/01/27 00:57:17;;;;;;;22.75;11.73;;;2.70;99.90;;;;;;5017249;28;20253;-48
2023/01/27 00:59:44;;;;;;;24.80;10.80;;;2.20;99.90;;;;;;4950787;29;20222;-47
2023/01/27 01:02:11;;;;;;;20.25;12.25;;;2.30;99.90;;;;;;4952746;28;20192;-47
2023/01/27 01:04:38;;;;;;;27.52;12.55;;;2.30;99.90;;;;;;4953941;29;20219;-48
2023/01/27 01:07:05;;;;;;;27.60;12.50;;;2.30;99.90;;;;;;5020825;28;20596;-48
2023/01/27 01:09:32;;;;;;;26.63;12.55;;;2.60;99.90;;;;;;4953655;29;20203;-47
2023/01/27 01:12:00;;;;;;;24.55;12.40;;;2.20;99.90;;;;;;5020357;28;20559;-48
2023/01/27 01:14:26;;;;;;;27.52;12.52;;;2.40;99.90;;;;;;4953947;29;20195;-47
2023/01/27 01:16:55;;;;;;;28.30;12.85;;;2.30;99.90;;;;;;5020286;28;20229;-47
2023/01/27 01:19:21;;;;;;;22.95;10.82;;;2.00;99.90;;;;;;4953672;28;20664;-48
2023/01/27 01:21:48;;;;;;;22.20;12.00;;;2.40;99.90;;;;;;5020575;28;20222;-47
2023/01/27 01:24:14;;;;;;;26.55;12.45;;;2.20;99.90;;;;;;5020139;28;20241;-47
2023/01/27 01:26:41;;;;;;;23.17;11.75;;;2.30;99.90;;;;;;5019986;28;20210;-47
2023/01/27 01:29:09;;;;;;;29.30;12.77;;;2.30;99.90;;;;;;5019884;28;20294;-48
2023/01/27 01:31:36;;;;;;;33.83;13.00;;;2.20;99.90;;;;;;4953631;29;20207;-49
2023/01/27 01:34:03;;;;;;;23.45;12.05;;;1.80;99.90;;;;;;5020156;28;20265;-49
2023/01/27 01:36:30;;;;;;;29.02;13.18;;;2.20;99.90;;;;;;4953509;29;20211;-48
2023/01/27 01:38:57;;;;;;;23.52;11.65;;;2.20;99.90;;;;;;4954432;28;20215;-48
2023/01/27 01:41:24;;;;;;;28.83;13.32;;;2.20;99.90;;;;;;4956452;28;20191;-47
2023/01/27 01:43:51;;;;;;;28.70;12.55;;;2.20;99.90;;;;;;5024114;28;20210;-47
2023/01/27 01:46:20;;;;;;;27.58;13.82;;;2.40;99.90;;;;;;4957085;28;20207;-48
2023/01/27 01:48:50;;;;;;;25.48;12.48;;;2.30;99.90;;;;;;4956260;28;20225;-48
2023/01/27 01:51:21;;;;;;;30.48;12.20;;;2.30;99.90;;;;;;4956286;28;20218;-48
2023/01/27 01:53:53;;;;;;;20.75;11.70;;;2.20;99.90;;;;;;5020038;28;20211;-49
2023/01/27 01:56:24;;;;;;;20.98;11.85;;;2.30;99.90;;;;;;5020278;28;20664;-49
2023/01/27 01:58:52;;;;;;;19.45;10.95;;;2.40;99.90;;;;;;5020363;28;20227;-45
2023/01/27 02:01:20;;;;;;;22.48;11.77;;;2.10;99.90;;;;;;4953504;29;20295;-47
2023/01/27 02:03:50;;;;;;;22.58;11.05;;;2.40;99.90;;;;;;5019624;28;20204;-47
2023/01/27 02:06:17;;;;;;;18.42;10.30;;;2.30;99.90;;;;;;5019553;28;20238;-47
2023/01/27 02:08:46;;;;;;;19.45;10.98;;;2.20;99.90;;;;;;4952537;28;20715;-47
2023/01/27 02:11:12;;;;;;;19.13;11.07;;;2.20;99.90;;;;;;5019700;28;20294;-47
2023/01/27 02:13:40;;;;;;;21.85;11.02;;;2.10;99.90;;;;;;5019006;28;20203;-47
2023/01/27 02:16:09;;;;;;;19.23;11.05;;;2.10;99.90;;;;;;4953118;28;20851;-47
2023/01/27 02:18:39;;;;;;;17.67;10.10;;;2.30;99.90;;;;;;4952484;28;20215;-48
2023/01/27 02:21:07;;;;;;;20.00;11.48;;;2.30;99.90;;;;;;4953044;29;20195;-47
2023/01/27 02:23:45;;;;;;;16.95;10.07;;;2.30;99.90;;;;;;4952784;28;20210;-47
2023/01/27 02:26:17;;;;;;;16.30;11.00;;;2.60;99.90;;;;;;4952954;28;20227;-46
2023/01/27 02:28:44;;;;;;;18.65;11.32;;;2.40;99.90;;;;;;4952304;28;20219;-47
2023/01/27 02:31:11;;;;;;;20.75;11.10;;;2.40;99.90;;;;;;5018839;28;20209;-48
2023/01/27 02:33:37;;;;;;;21.80;11.10;;;2.40;99.90;;;;;;5019120;28;20214;-47
2023/01/27 02:36:09;;;;;;;19.70;13.40;;;2.30;99.90;;;;;;5018958;28;20204;-47
2023/01/27 02:38:38;;;;;;;18.88;10.60;;;2.50;99.90;;;;;;5018596;28;20566;-47
2023/01/27 02:41:11;;;;;;;16.45;10.85;;;2.50;99.90;;;;;;5019116;28;20639;-47
2023/01/27 02:43:40;;;;;;;19.73;10.60;;;2.40;99.90;;;;;;5018911;28;20211;-48
2023/01/27 02:46:07;;;;;;;17.20;10.88;;;2.20;99.90;;;;;;5018574;28;20238;-47
2023/01/27 02:48:34;;;;;;;18.85;9.18;;;2.40;99.90;;;;;;5017998;28;20227;-47
2023/01/27 02:51:00;;;;;;;18.45;10.45;;;2.30;99.90;;;;;;5035454;28;20571;-48
2023/01/27 02:53:29;;;;;;;19.30;11.65;;;2.30;99.90;;;;;;5018576;28;20684;-47
2023/01/27 02:55:55;;;;;;;18.52;11.68;;;2.60;99.90;;;;;;5018814;28;20298;-47
2023/01/27 02:58:22;;;;;;;19.85;10.70;;;1.90;99.90;;;;;;4952039;28;20238;-48
2023/01/27 03:00:57;;;;;;;17.98;11.02;;;2.50;99.90;;;;;;4952477;29;20219;-47
2023/01/27 03:03:24;;;;;;;20.27;12.60;;;2.40;99.90;;;;;;5018732;28;20231;-48
2023/01/27 03:05:51;;;;;;;20.98;11.93;;;2.50;99.90;;;;;;5018809;28;20223;-47
2023/01/27 03:08:18;;;;;;;20.30;11.95;;;2.50;99.90;;;;;;5017715;28;20233;-47
2023/01/27 03:10:50;;;;;;;20.73;11.25;;;1.80;99.90;;;;;;5018260;28;20218;-48
2023/01/27 03:13:16;;;;;;;18.52;10.43;;;2.40;99.90;;;;;;4952428;28;20200;-47
2023/01/27 03:18:29;;;;;;;23.55;12.00;;;2.70;99.90;;;;;;5017778;28;20700;-47
2023/01/27 03:21:01;;;;;;;19.48;11.00;;;2.60;99.90;;;;;;4952085;28;20249;-47
2023/01/27 03:23:28;;;;;;;22.08;11.25;;;2.50;99.90;;;;;;4951591;28;20222;-47
2023/01/27 03:25:55;;;;;;;23.08;12.15;;;2.60;99.90;;;;;;4951748;28;20229;-47
2023/01/27 03:28:23;;;;;;;19.95;12.32;;;2.80;99.90;;;;;;5017500;28;20345;-47
2023/01/27 03:31:00;;;;;;;16.38;10.60;;;2.80;99.90;;;;;;5018156;28;20215;-49
2023/01/27 03:33:35;;;;;;;17.33;11.30;;;2.60;99.90;;;;;;5018125;28;20203;-49
2023/01/27 03:47:18;;;;;;;17.38;9.57;;;2.70;99.90;;;;;;4951453;28;20250;-48
2023/01/27 03:49:46;;;;;;;14.13;9.77;;;2.60;99.90;;;;;;4951330;28;20630;-47
2023/01/27 03:52:13;;;;;;;16.95;10.93;;;2.80;99.90;;;;;;4951370;29;20204;-49
2023/01/27 03:54:39;;;;;;;15.60;10.40;;;2.60;99.90;;;;;;4951688;28;20199;-49
2023/01/27 03:57:07;;;;;;;16.88;10.32;;;2.60;99.90;;;;;;5017624;28;20234;-49
2023/01/27 03:59:34;;;;;;;13.98;8.82;;;3.00;99.90;;;;;;5017312;28;20203;-48
2023/01/27 04:07:35;;;;;;;14.38;9.23;;;2.60;99.90;;;;;;5017296;28;20230;-48
2023/01/27 04:10:01;;;;;;;13.90;8.27;;;2.10;99.90;;;;;;4951359;28;20195;-49
2023/01/27 04:12:27;;;;;;;16.05;11.52;;;2.70;99.90;;;;;;4951280;29;20248;-49
2023/01/27 04:14:54;;;;;;;21.73;11.63;;;2.70;99.90;;;;;;5017120;28;20196;-49
2023/01/27 04:17:21;;;;;;;14.45;8.20;;;2.80;99.90;;;;;;4951147;28;20470;-49
2023/01/27 04:19:48;;;;;;;10.85;7.35;;;2.90;99.90;;;;;;4950758;29;20565;-48
2023/01/27 04:22:16;;;;;;;14.52;8.23;;;2.80;99.90;;;;;;4950959;29;20204;-48
2023/01/27 04:24:43;;;;;;;17.98;8.48;;;2.20;99.90;;;;;;4951011;29;20223;-47
2023/01/27 04:27:11;;;;;;;13.02;7.60;;;2.50;99.90;;;;;;4950954;28;20230;-48
2023/01/27 04:29:40;;;;;;;17.90;9.40;;;3.10;99.90;;;;;;5016717;28;20247;-48
2023/01/27 04:32:09;;;;;;;14.45;8.48;;;2.80;99.90;;;;;;4951060;28;20199;-49
2023/01/27 04:34:36;;;;;;;18.40;9.23;;;2.70;99.90;;;;;;5017052;28;20204;-47
2023/01/27 04:37:05;;;;;;;17.02;9.32;;;2.80;99.90;;;;;;4952533;28;20226;-48
2023/01/27 04:39:32;;;;;;;15.88;7.63;;;2.90;99.90;;;;;;4954134;28;20215;-49
2023/01/27 04:41:59;;;;;;;17.85;8.68;;;2.70;99.90;;;;;;4954129;29;20196;-48
2023/01/27 04:44:26;;;;;;;13.85;8.63;;;2.60;99.90;;;;;;4954412;28;20199;-49
2023/01/27 04:46:53;;;;;;;13.93;8.52;;;2.80;99.90;;;;;;4954143;28;20577;-48
2023/01/27 04:49:21;;;;;;;13.13;8.57;;;2.70;99.90;;;;;;4953935;28;20549;-48
2023/01/27 04:51:47;;;;;;;15.05;8.35;;;3.20;99.90;;;;;;4954241;28;20291;-49
2023/01/27 04:54:16;;;;;;;13.13;7.85;;;2.40;99.90;;;;;;4954204;28;20220;-48
2023/01/27 04:56:55;;;;;;;14.65;8.32;;;3.20;99.90;;;;;;4953904;28;20202;-48
2023/01/27 04:59:22;;;;;;;17.38;8.38;;;2.30;99.90;;;;;;4953869;28;20208;-49
2023/01/27 05:01:49;;;;;;;13.57;7.68;;;2.30;99.90;;;;;;4954433;29;20286;-48
2023/01/27 05:04:15;;;;;;;16.63;8.88;;;3.10;99.90;;;;;;4954025;28;20203;-49
2023/01/27 05:06:42;;;;;;;11.52;6.55;;;3.20;99.90;;;;;;4953759;28;20212;-49
2023/01/27 05:09:08;;;;;;;13.30;7.50;;;3.00;99.90;;;;;;4953518;29;20203;-48
2023/01/27 05:11:36;;;;;;;16.35;9.10;;;3.20;99.90;;;;;;4954072;29;20196;-49
2023/01/27 05:14:03;;;;;;;14.82;8.18;;;2.80;99.90;;;;;;4954020;28;20211;-49
2023/01/27 05:16:30;;;;;;;14.57;7.53;;;3.30;99.90;;;;;;4953916;28;20195;-48
2023/01/27 05:18:56;;;;;;;16.20;8.65;;;2.90;99.90;;;;;;4953142;28;20219;-49
2023/01/27 05:21:27;;;;;;;18.05;8.98;;;3.10;99.90;;;;;;4953727;28;20196;-48
2023/01/27 05:23:54;;;;;;;14.82;7.97;;;2.90;99.90;;;;;;4953805;28;20283;-50
2023/01/27 05:26:22;;;;;;;13.93;8.02;;;3.20;99.90;;;;;;4953648;28;20708;-47
2023/01/27 05:28:51;;;;;;;12.02;7.63;;;3.00;99.90;;;;;;4953266;28;20223;-47
2023/01/27 05:31:19;;;;;;;14.77;7.97;;;3.10;99.90;;;;;;5020082;28;20220;-47
2023/01/27 05:33:48;;;;;;;14.95;8.20;;;3.10;99.90;;;;;;4953725;28;20726;-47
2023/01/27 05:36:17;;;;;;;16.33;8.40;;;2.90;99.90;;;;;;4953604;28;20200;-48
2023/01/27 05:38:44;;;;;;;13.70;7.80;;;3.00;99.90;;;;;;4953172;28;20230;-47
2023/01/27 05:41:12;;;;;;;13.20;7.53;;;3.30;99.90;;;;;;4953269;29;20691;-48
2023/01/27 05:43:41;;;;;;;15.20;8.07;;;2.80;99.90;;;;;;5036572;28;20211;-49
2023/01/27 05:46:11;;;;;;;16.05;8.52;;;2.30;99.90;;;;;;4953290;28;20219;-48
2023/01/27 05:48:41;;;;;;;17.63;8.85;;;2.60;99.90;;;;;;4952301;28;20301;-48
2023/01/27 05:51:08;;;;;;;16.48;8.07;;;3.10;99.90;;;;;;4953474;28;20204;-48
2023/01/27 05:53:35;;;;;;;15.32;7.75;;;3.10;99.90;;;;;;4953376;29;20219;-48
2023/01/27 05:56:02;;;;;;;13.27;7.78;;;3.10;99.90;;;;;;4953155;29;20215;-48
2023/01/27 05:58:30;;;;;;;15.90;8.10;;;3.20;99.90;;;;;;4952547;28;20227;-49
2023/01/27 06:00:56;;;;;;;13.55;7.47;;;3.10;99.90;;;;;;4953247;28;20207;-48
2023/01/27 06:03:24;;;;;;;14.57;7.22;;;2.40;99.90;;;;;;4953217;28;20211;-48
2023/01/27 06:05:56;;;;;;;16.73;8.55;;;2.70;99.90;;;;;;4952938;29;20243;-48
2023/01/27 06:08:24;;;;;;;17.38;7.65;;;2.80;99.90;;;;;;5005070;22;20628;-47
2023/01/27 06:10:51;;;;;;;16.35;7.57;;;2.80;99.90;;;;;;4952678;28;20208;-48
2023/01/27 06:13:18;;;;;;;15.55;7.65;;;3.20;99.90;;;;;;4935265;29;20211;-49
2023/01/27 06:15:47;;;;;;;14.57;7.80;;;2.80;99.90;;;;;;4952309;29;20286;-46
2023/01/27 06:18:15;;;;;;;15.52;8.13;;;2.30;99.90;;;;;;4951796;28;20219;-49
2023/01/27 06:20:44;;;;;;;18.48;8.65;;;2.80;99.90;;;;;;4952479;29;20667;-49
2023/01/27 06:23:12;;;;;;;16.05;8.10;;;2.90;99.90;;;;;;4952075;29;20206;-47
2023/01/27 06:25:40;;;;;;;14.07;7.13;;;2.90;99.90;;;;;;4952209;29;20314;-48
2023/01/27 06:28:07;;;;;;;13.82;6.70;;;2.90;99.90;;;;;;4951737;28;20247;-48
2023/01/27 06:30:35;;;;;;;12.98;7.25;;;3.10;99.90;;;;;;4952148;29;20209;-51
2023/01/27 06:33:03;;;;;;;16.00;7.30;;;2.90;99.90;;;;;;4952155;29;20208;-48
2023/01/27 06:35:30;;;;;;;13.30;7.50;;;3.10;99.90;;;;;;4952266;29;20191;-49
2023/01/27 06:37:59;;;;;;;16.45;7.00;;;3.10;99.90;;;;;;4952071;28;20223;-47
2023/01/27 06:40:27;;;;;;;15.18;8.60;;;3.00;99.90;;;;;;4952050;28;20283;-50
2023/01/27 06:42:53;;;;;;;13.90;7.60;;;3.10;99.90;;;;;;4951757;29;20200;-49
2023/01/27 06:45:20;;;;;;;14.27;7.88;;;2.90;99.90;;;;;;4935065;28;20235;-48
2023/01/27 06:47:54;;;;;;;14.00;7.70;;;3.00;99.90;;;;;;4952441;28;20684;-48
2023/01/27 06:50:21;;;;;;;15.25;8.48;;;2.80;99.90;;;;;;4951653;29;20685;-49
2023/01/27 06:52:47;;;;;;;17.60;8.48;;;2.80;99.90;;;;;;4934518;29;20210;-48
2023/01/27 06:55:15;;;;;;;14.10;7.75;;;3.00;99.90;;;;;;4952317;28;20196;-47
2023/01/27 06:57:43;;;;;;;12.48;7.65;;;3.50;99.90;;;;;;4952255;28;20442;-48
2023/01/27 07:00:11;;;;;;;21.70;9.43;;;3.10;99.90;;;;;;4950872;29;20207;-49
2023/01/27 07:02:37;;;;;;;14.52;8.25;;;3.10;99.90;;;;;;4952005;29;20516;-48
2023/01/27 07:05:04;;;;;;;18.67;8.88;;;3.10;99.90;;;;;;4952562;28;20196;-47
2023/01/27 07:07:31;;;;;;;16.20;8.10;;;2.90;99.90;;;;;;4951727;28;20223;-48
2023/01/27 07:09:58;;;;;;;19.95;8.43;;;3.00;99.90;;;;;;4952173;29;20233;-49
2023/01/27 07:12:26;;;;;;;18.27;8.45;;;2.80;99.90;;;;;;4952511;28;20207;-49
2023/01/27 07:14:52;;;;;;;19.00;8.85;;;3.10;99.90;;;;;;4952060;28;20206;-47
2023/01/27 07:17:19;;;;;;;18.50;8.18;;;3.00;99.90;;;;;;4952477;28;20207;-49
2023/01/27 07:19:46;;;;;;;18.60;10.27;;;3.10;99.90;;;;;;4951621;29;20569;-47
2023/01/27 07:22:12;;;;;;;19.10;9.82;;;2.60;99.90;;;;;;4951937;29;20207;-48
2023/01/27 07:24:39;;;;;;;22.98;10.23;;;2.70;99.90;;;;;;4952281;29;20287;-47
2023/01/27 07:27:05;;;;;;;18.20;9.75;;;3.30;99.90;;;;;;4951586;29;20227;-47
2023/01/27 07:29:33;;;;;;;19.45;9.20;;;3.20;99.90;;;;;;4951393;28;20249;-48
2023/01/27 07:32:00;;;;;;;21.98;10.73;;;3.10;99.90;;;;;;4951660;29;20195;-48
2023/01/27 07:34:26;;;;;;;22.55;10.52;;;3.30;99.90;;;;;;4951743;29;20196;-47
2023/01/27 07:36:53;;;;;;;22.90;10.73;;;2.60;99.90;;;;;;4951633;29;20680;-48
2023/01/27 07:39:20;;;;;;;26.17;10.88;;;3.40;99.90;;;;;;4951352;28;20220;-49
2023/01/27 07:41:48;;;;;;;25.15;12.45;;;3.20;99.90;;;;;;4951626;29;20207;-46
2023/01/27 07:44:15;;;;;;;20.27;10.70;;;3.20;99.90;;;;;;4934224;29;20207;-47
2023/01/27 07:46:43;;;;;;;20.63;10.55;;;3.30;99.90;;;;;;4951949;29;20223;-47
2023/01/27 07:49:11;;;;;;;23.65;9.98;;;3.40;99.90;;;;;;4950905;28;20226;-47
2023/01/27 07:51:38;;;;;;;19.05;10.32;;;3.10;99.90;;;;;;4950941;29;20655;-49
2023/01/27 07:54:05;;;;;;;21.58;10.55;;;3.30;99.90;;;;;;4950744;29;20662;-48
2023/01/27 07:56:32;;;;;;;24.92;10.55;;;3.20;99.90;;;;;;4950731;29;20199;-47
2023/01/27 07:58:58;;;;;;;16.55;9.27;;;3.20;99.90;;;;;;4950379;28;20753;-48
2023/01/27 08:01:25;;;;;;;17.92;9.82;;;3.50;99.90;;;;;;4950631;29;20200;-49
2023/01/27 08:03:53;;;;;;;19.17;10.15;;;3.30;99.90;;;;;;4933605;29;20204;-48
2023/01/27 08:06:20;;;;;;;17.00;10.18;;;3.40;99.90;;;;;;4950498;29;20237;-47
2023/01/27 08:08:47;;;;;;;29.23;10.25;;;3.70;99.90;;;;;;4950829;28;20227;-48
2023/01/27 08:11:14;;;;;;;21.67;10.68;;;3.00;99.90;;;;;;4950991;29;20676;-48
2023/01/27 08:13:42;;;;;;;17.98;10.15;;;3.50;99.90;;;;;;4950587;29;20527;-48
2023/01/27 08:16:13;;;;;;;15.45;9.98;;;3.70;99.90;;;;;;4950350;29;20633;-48
2023/01/27 08:18:39;;;;;;;17.02;10.55;;;3.30;99.90;;;;;;4950219;28;20219;-48
2023/01/27 08:21:10;;;;;;;19.33;10.75;;;3.50;99.90;;;;;;4933041;29;20208;-48
2023/01/27 08:23:37;;;;;;;21.30;10.77;;;3.90;99.90;;;;;;4933199;29;20298;-49
2023/01/27 08:26:06;;;;;;;21.90;10.95;;;3.70;99.90;;;;;;4932848;29;20208;-48
2023/01/27 08:28:36;;;;;;;17.40;10.70;;;3.70;99.90;;;;;;4949877;28;20239;-50
2023/01/27 08:31:07;;;;;;;18.20;10.07;;;3.60;99.90;;;;;;4950409;29;20202;-47
2023/01/27 08:33:35;;;;;;;19.63;10.13;;;3.80;99.90;;;;;;4950134;29;20672;-48
2023/01/27 08:36:03;;;;;;;17.63;10.00;;;3.60;99.90;;;;;;4949906;29;20199;-49
2023/01/27 08:38:33;;;;;;;17.60;9.43;;;4.00;99.90;;;;;;4949718;28;20218;-47
2023/01/27 08:41:03;;;;;;;20.08;9.70;;;3.90;99.90;;;;;;4950158;29;20203;-48
2023/01/27 08:43:30;;;;;;;16.10;9.75;;;4.20;99.90;;;;;;4950155;29;20210;-47
2023/01/27 08:45:59;;;;;;;17.65;9.35;;;4.20;99.90;;;;;;4949771;29;20651;-49
2023/01/27 08:48:26;;;;;;;15.35;9.02;;;4.00;99.90;;;;;;4949767;28;20225;-49
2023/01/27 08:50:52;;;;;;;17.48;9.65;;;3.90;99.90;;;;;;4950012;29;20206;-48
2023/01/27 08:53:19;;;;;;;14.48;9.18;;;4.20;99.90;;;;;;4950201;29;20253;-48
2023/01/27 08:55:48;;;;;;;17.13;9.85;;;3.60;99.90;;;;;;4950549;28;20203;-49
2023/01/27 08:58:14;;;;;;;16.67;9.60;;;4.40;99.90;;;;;;4950106;28;20234;-47
2023/01/27 09:00:41;;;;;;;14.80;10.15;;;4.00;99.90;;;;;;4950146;29;20269;-50
2023/01/27 09:03:07;;;;;;;13.05;10.07;;;4.20;99.90;;;;;;4950563;29;20672;-50
2023/01/27 09:05:35;;;;;;;18.15;10.25;;;4.50;99.90;;;;;;4950584;29;20229;-50
2023/01/27 09:08:02;;;;;;;14.18;10.48;;;4.40;99.90;;;;;;4950383;28;20223;-49
2023/01/27 09:10:30;;;;;;;14.27;9.02;;;4.40;99.90;;;;;;4950350;29;20575;-47
2023/01/27 09:12:58;;;;;;;14.48;9.80;;;4.20;99.90;;;;;;4950337;29;20702;-48
2023/01/27 09:15:24;;;;;;;14.48;8.98;;;3.80;99.90;;;;;;4950580;28;20199;-49
2023/01/27 09:17:51;;;;;;;14.48;9.40;;;4.50;99.90;;;;;;4950337;28;20591;-48
2023/01/27 09:20:18;;;;;;;11.93;9.02;;;3.80;99.90;;;;;;4950269;28;20200;-49
2023/01/27 09:22:44;;;;;;;12.68;7.60;;;4.70;99.90;;;;;;4951545;28;20215;-49
2023/01/27 09:25:14;;;;;;;14.95;8.65;;;4.30;99.90;;;;;;4953363;28;20210;-49
2023/01/27 09:27:41;;;;;;;11.73;7.13;;;4.10;99.90;;;;;;4953036;28;20695;-47
2023/01/27 09:30:12;;;;;;;9.15;6.70;;;4.30;99.90;;;;;;4952776;29;20214;-46
2023/01/27 09:32:39;;;;;;;10.85;6.40;;;4.70;99.90;;;;;;4953252;29;20220;-48
2023/01/27 09:35:07;;;;;;;9.57;6.88;;;4.50;99.90;;;;;;4952727;29;20203;-48
2023/01/27 09:37:38;;;;;;;8.90;5.78;;;4.40;99.90;;;;;;4952380;28;20196;-49
2023/01/27 09:40:13;;;;;;;7.68;6.55;;;4.40;99.90;;;;;;4935077;29;20227;-48
2023/01/27 09:42:59;;;;;;;10.32;7.95;;;4.60;99.90;;;;;;4953028;29;20683;-48
2023/01/27 09:45:49;;;;;;;9.95;7.10;;;4.30;99.90;;;;;;4952589;29;20279;-49
2023/01/27 09:48:29;;;;;;;13.35;7.70;;;4.30;99.90;;;;;;4952163;28;20630;-48
2023/01/27 09:51:04;;;;;;;8.63;7.07;;;5.10;99.90;;;;;;4952499;29;20207;-48
2023/01/27 09:53:48;;;;;;;12.05;8.15;;;4.60;99.90;;;;;;4952406;29;20528;-49
2023/01/27 09:56:22;;;;;;;9.32;7.30;;;4.60;99.90;;;;;;4952734;29;20204;-49
2023/01/27 09:59:06;;;;;;;10.20;8.95;;;4.80;99.90;;;;;;4951862;28;20227;-49
2023/01/27 10:01:46;;;;;;;9.20;7.35;;;4.50;99.90;;;;;;4935087;29;20230;-49
2023/01/27 10:04:25;;;;;;;9.88;7.40;;;4.70;99.90;;;;;;4952250;29;20271;-48
2023/01/27 10:07:03;;;;;;;9.75;8.07;;;4.90;99.90;;;;;;4952497;28;20223;-47
2023/01/27 10:09:59;;;;;;;12.40;7.80;;;4.60;99.90;;;;;;4951985;28;20258;-47
2023/01/27 10:12:39;;;;;;;8.68;6.95;;;4.60;99.90;;;;;;4952452;28;20207;-49
2023/01/27 10:15:19;;;;;;;9.50;7.90;;;4.50;99.90;;;;;;4952556;29;20545;-49
2023/01/27 10:17:57;;;;;;;11.68;6.63;;;4.90;99.90;;;;;;4952086;28;20631;-48
2023/01/27 10:20:30;;;;;;;8.68;7.07;;;4.90;99.90;;;;;;4934589;29;20222;-48
2023/01/27 10:23:08;;;;;;;8.38;6.72;;;4.80;99.90;;;;;;4952326;29;20206;-48
2023/01/27 10:25:51;;;;;;;8.60;6.32;;;4.70;99.90;;;;;;4952154;29;20265;-48
2023/01/27 10:28:23;;;;;;;10.65;6.97;;;4.70;99.90;;;;;;4951582;28;20242;-49
2023/01/27 10:30:58;;;;;;;13.00;6.75;;;5.10;99.90;;;;;;4952008;29;20567;-48
2023/01/27 10:33:41;;;;;;;6.35;5.65;;;4.80;99.90;;;;;;4951499;28;20207;-49
2023/01/27 10:36:14;;;;;;;7.88;5.75;;;4.50;99.90;;;;;;4951837;29;20207;-49
2023/01/27 10:38:46;;;;;;;10.75;6.68;;;4.80;99.90;;;;;;4952417;28;20223;-48
2023/01/27 10:41:25;;;;;;;6.10;5.05;;;4.80;99.90;;;;;;4952341;28;20199;-49
2023/01/27 10:44:04;;;;;;;9.35;6.40;;;4.90;99.90;;;;;;4952022;29;20261;-49
2023/01/27 10:46:40;;;;;;;8.02;6.07;;;4.90;99.90;;;;;;4951852;28;20567;-48
2023/01/27 10:49:14;;;;;;;6.22;5.60;;;4.70;99.90;;;;;;4951340;28;20214;-49
2023/01/27 10:51:46;;;;;;;10.43;6.03;;;5.10;99.90;;;;;;4934628;29;20683;-49
2023/01/27 10:54:19;;;;;;;6.10;5.50;;;4.80;99.90;;;;;;4951718;29;20199;-49
2023/01/27 10:56:50;;;;;;;6.90;5.30;;;4.20;99.90;;;;;;4951847;28;20208;-50
2023/01/27 10:59:23;;;;;;;6.38;5.50;;;4.90;99.90;;;;;;4951225;28;20292;-47
2023/01/27 11:01:53;;;;;;;7.20;4.50;;;4.90;99.90;;;;;;4951444;29;20191;-49
2023/01/27 11:04:32;;;;;;;9.65;4.70;;;4.90;99.90;;;;;;4950969;29;20303;-48
2023/01/27 11:07:00;;;;;;;7.32;4.32;;;4.60;99.90;;;;;;4951249;29;20214;-48
2023/01/27 11:09:28;;;;;;;8.35;5.40;;;5.10;99.90;;;;;;4950840;28;20227;-48
2023/01/27 11:11:59;;;;;;;14.63;5.72;;;5.20;99.90;;;;;;4951398;29;20652;-48
2023/01/27 11:14:28;;;;;;;5.18;4.53;;;4.70;99.90;;;;;;4951283;29;20668;-48
2023/01/27 11:17:00;;;;;;;5.93;4.22;;;5.20;99.90;;;;;;4951443;29;20203;-49
2023/01/27 11:19:36;;;;;;;8.50;4.05;;;5.20;99.90;;;;;;4950783;28;20231;-49
2023/01/27 11:22:04;;;;;;;5.90;4.35;;;5.30;99.90;;;;;;4951392;29;20204;-48
2023/01/27 11:24:41;;;;;;;8.93;5.85;;;5.10;99.90;;;;;;4951099;29;20215;-49
2023/01/27 11:27:15;;;;;;;6.68;4.38;;;5.30;99.90;;;;;;4951424;29;20222;-48
2023/01/27 11:29:48;;;;;;;4.47;4.07;;;5.10;99.90;;;;;;4951032;29;20203;-49
2023/01/27 11:32:23;;;;;;;7.22;4.00;;;5.40;99.90;;;;;;4951242;29;20301;-50
2023/01/27 11:35:02;;;;;;;5.78;4.70;;;5.60;99.90;;;;;;4950991;28;20623;-50
2023/01/27 11:37:32;;;;;;;9.88;4.60;;;5.40;99.90;;;;;;4950790;28;20269;-49
2023/01/27 11:39:58;;;;;;;7.85;5.38;;;5.40;99.90;;;;;;4950637;29;20207;-48
2023/01/27 11:42:30;;;;;;;6.15;4.40;;;5.40;99.90;;;;;;4950984;29;20282;-49
2023/01/27 11:44:58;;;;;;;7.10;4.78;;;5.40;99.90;;;;;;4950557;28;20203;-47
2023/01/27 11:47:28;;;;;;;7.50;4.43;;;5.30;99.90;;;;;;4951143;28;20230;-47
2023/01/27 11:49:57;;;;;;;13.43;5.18;;;5.30;99.90;;;;;;4950842;29;20200;-47
2023/01/27 11:52:25;;;;;;;7.43;5.50;;;5.50;99.90;;;;;;4951023;29;20205;-48
2023/01/27 11:54:56;;;;;;;10.98;5.38;;;5.50;99.90;;;;;;4951459;29;20199;-47
2023/01/27 11:57:26;;;;;;;9.65;4.95;;;5.20;99.90;;;;;;4951142;28;20196;-50
2023/01/27 11:59:58;;;;;;;8.00;5.20;;;5.50;99.90;;;;;;4950816;28;20572;-48
2023/01/27 12:02:32;;;;;;;8.95;5.45;;;5.10;99.90;;;;;;4951278;28;20436;-48
2023/01/27 12:05:06;;;;;;;8.63;4.97;;;4.90;99.90;;;;;;4951584;28;20195;-49
2023/01/27 12:07:45;;;;;;;12.60;6.80;;;5.40;99.90;;;;;;4950904;28;20478;-48
2023/01/27 12:10:24;;;;;;;8.80;6.03;;;5.50;99.90;;;;;;4952020;28;20406;-49
2023/01/27 12:12:50;;;;;;;9.30;6.03;;;5.20;99.90;;;;;;4951614;29;20419;-48
2023/01/27 12:15:18;;;;;;;9.47;5.90;;;4.50;99.90;;;;;;4934401;29;20466;-48
2023/01/27 12:17:48;;;;;;;7.03;5.50;;;4.90;99.90;;;;;;4951191;28;20437;-49
2023/01/27 12:20:36;;;;;;;7.47;5.63;;;5.20;99.90;;;;;;4950407;29;20442;-49
2023/01/27 12:23:15;;;;;;;9.40;6.18;;;5.00;99.90;;;;;;4950986;29;20409;-49
2023/01/27 12:25:46;;;;;;;10.98;6.53;;;4.60;99.90;;;;;;4951229;28;20208;-49
2023/01/27 12:28:28;;;;;;;16.35;7.47;;;4.50;99.90;;;;;;4950575;28;20230;-49
2023/01/27 12:31:03;;;;;;;10.70;7.20;;;5.20;99.90;;;;;;4951188;29;20203;-49
2023/01/27 12:33:32;;;;;;;10.68;6.90;;;5.00;99.90;;;;;;4951243;29;20276;-49
2023/01/27 12:36:05;;;;;;;12.50;6.80;;;5.00;99.90;;;;;;4933058;29;20208;-48
2023/01/27 12:38:35;;;;;;;14.30;6.50;;;5.20;99.90;;;;;;4950020;28;20701;-48
2023/01/27 12:41:04;;;;;;;9.00;6.00;;;4.80;99.90;;;;;;4951372;29;20267;-51
2023/01/27 12:43:31;;;;;;;12.85;5.78;;;5.00;99.90;;;;;;4951645;29;20447;-48
2023/01/27 12:46:15;;;;;;;12.02;5.60;;;4.60;99.90;;;;;;4951516;29;20253;-47
2023/01/27 12:48:47;;;;;;;10.75;5.65;;;4.90;99.90;;;;;;4950494;28;20234;-46
2023/01/27 12:51:18;;;;;;;10.00;5.15;;;4.60;99.90;;;;;;4951859;28;20204;-47
2023/01/27 12:53:47;;;;;;;12.65;5.75;;;5.10;99.90;;;;;;4951850;28;20211;-47
2023/01/27 12:56:16;;;;;;;11.75;4.93;;;4.70;99.90;;;;;;4951044;28;20211;-47
2023/01/27 12:58:44;;;;;;;6.60;3.78;;;5.00;99.90;;;;;;4952976;28;20220;-49
2023/01/27 13:01:28;;;;;;;11.03;4.83;;;5.10;99.90;;;;;;4953830;29;20303;-48
2023/01/27 13:03:57;;;;;;;9.50;4.45;;;4.80;99.90;;;;;;4953913;29;20444;-48
2023/01/27 13:06:34;;;;;;;11.82;5.05;;;4.90;99.90;;;;;;4953738;29;20358;-47
2023/01/27 13:09:02;;;;;;;7.82;4.22;;;4.90;99.90;;;;;;4953426;28;20699;-49
2023/01/27 13:11:36;;;;;;;5.03;4.28;;;4.80;99.90;;;;;;4953800;29;20278;-49
2023/01/27 13:14:06;;;;;;;8.15;4.50;;;4.50;99.90;;;;;;4954250;29;20245;-48
2023/01/27 13:16:33;;;;;;;6.93;4.40;;;4.70;99.90;;;;;;4955178;29;20210;-48
2023/01/27 13:19:01;;;;;;;15.02;4.68;;;4.80;99.90;;;;;;4954284;28;20208;-47
2023/01/27 13:21:32;;;;;;;7.15;3.58;;;4.50;99.90;;;;;;4953343;29;20207;-48
2023/01/27 13:24:01;;;;;;;7.13;3.78;;;4.70;99.90;;;;;;4952851;29;20214;-48
2023/01/27 13:26:31;;;;;;;6.85;3.97;;;4.70;99.90;;;;;;4953481;29;20206;-49